createdAt,value
2023-02-05T00:00:25.562Z,10.80
2023-02-05T00:03:13.873Z,11.10
2023-02-05T00:05:42.536Z,12.00
2023-02-05T00:08:11.132Z,15.20
2023-02-05T00:10:39.477Z,12.70
2023-02-05T00:13:09.280Z,15.20
2023-02-05T00:15:41.309Z,12.70
2023-02-05T00:18:11.038Z,11.90
2023-02-05T00:20:39.660Z,10.40
2023-02-05T00:23:08.125Z,11.20
2023-02-05T00:25:36.640Z,10.10
2023-02-05T00:28:04.945Z,9.80
2023-02-05T00:30:33.616Z,10.20
2023-02-05T00:33:02.060Z,10.00
2023-02-05T00:35:33.748Z,11.10
2023-02-05T00:38:02.306Z,11.00
2023-02-05T00:40:30.742Z,10.70
2023-02-05T00:42:59.570Z,12.80
2023-02-05T00:45:32.685Z,13.80
2023-02-05T00:48:07.618Z,15.00
2023-02-05T00:50:36.961Z,15.80
2023-02-05T00:53:05.738Z,16.50
2023-02-05T00:55:34.415Z,16.20
2023-02-05T00:58:02.750Z,17.70
2023-02-05T01:00:31.493Z,18.60
2023-02-05T01:03:01.145Z,20.00
2023-02-05T01:05:31.255Z,19.30
2023-02-05T01:07:59.863Z,18.30
2023-02-05T01:10:28.591Z,18.60
2023-02-05T01:12:58.382Z,17.80
2023-02-05T01:15:27.419Z,18.10
2023-02-05T01:18:00.669Z,17.20
2023-02-05T01:20:29.682Z,16.80
2023-02-05T01:22:57.934Z,16.00
2023-02-05T01:25:26.306Z,17.10
2023-02-05T01:27:54.690Z,17.20
2023-02-05T01:30:23.035Z,16.60
2023-02-05T01:32:51.355Z,16.50
2023-02-05T01:35:20.015Z,14.70
2023-02-05T01:37:48.372Z,15.10
2023-02-05T01:40:18.360Z,15.60
2023-02-05T01:42:47.214Z,15.20
2023-02-05T01:45:30.017Z,14.70
2023-02-05T01:48:02.320Z,13.30
2023-02-05T01:50:45.814Z,13.90
2023-02-05T01:53:19.150Z,12.90
2023-02-05T01:56:18.757Z,13.90
2023-02-05T01:59:03.777Z,14.00
2023-02-05T02:01:33.182Z,13.70
2023-02-05T02:04:04.977Z,15.20
2023-02-05T02:06:36.080Z,14.50
2023-02-05T02:09:06.793Z,14.80
2023-02-05T02:11:40.851Z,14.70
2023-02-05T02:14:10.336Z,12.50
2023-02-05T02:16:40.888Z,12.20
2023-02-05T02:19:24.499Z,11.40
2023-02-05T02:22:18.164Z,12.20
2023-02-05T02:25:35.245Z,11.70
2023-02-05T02:28:30.785Z,12.80
2023-02-05T02:31:19.035Z,13.30
2023-02-05T02:33:54.917Z,14.70
2023-02-05T02:36:38.380Z,17.00
2023-02-05T02:39:30.436Z,19.40
2023-02-05T02:42:16.733Z,19.50
2023-02-05T02:45:08.780Z,18.30
2023-02-05T02:47:45.672Z,16.70
2023-02-05T02:50:20.420Z,16.50
2023-02-05T02:52:52.760Z,16.60
2023-02-05T02:55:23.371Z,16.70
2023-02-05T02:57:53.032Z,16.10
2023-02-05T03:00:26.776Z,15.10
2023-02-05T03:03:14.505Z,15.60
2023-02-05T03:05:46.144Z,14.40
2023-02-05T03:08:32.337Z,14.40
2023-02-05T03:11:05.777Z,14.30
2023-02-05T03:13:35.466Z,12.40
2023-02-05T03:16:06.216Z,12.80
2023-02-05T03:18:35.311Z,12.30
2023-02-05T03:21:13.809Z,12.30
2023-02-05T03:23:42.212Z,12.20
2023-02-05T03:26:32.128Z,12.40
2023-02-05T03:29:13.962Z,12.40
2023-02-05T03:32:31.460Z,12.50
2023-02-05T03:35:41.972Z,14.10
2023-02-05T03:38:37.740Z,13.60
2023-02-05T03:41:53.923Z,14.50
2023-02-05T03:44:43.524Z,15.10
2023-02-05T03:47:20.988Z,16.70
2023-02-05T03:50:21.631Z,17.90
2023-02-05T03:53:03.855Z,18.70
2023-02-05T03:55:39.155Z,17.40
2023-02-05T03:58:40.395Z,15.20
2023-02-05T04:01:11.989Z,16.70
2023-02-05T04:03:40.661Z,17.30
2023-02-05T04:06:09.503Z,17.70
2023-02-05T04:08:37.917Z,19.40
2023-02-05T04:11:06.453Z,15.80
2023-02-05T04:13:36.135Z,18.60
2023-02-05T04:16:04.662Z,21.20
2023-02-05T04:18:32.981Z,24.60
2023-02-05T04:21:01.927Z,26.50
2023-02-05T04:23:32.188Z,28.90
2023-02-05T04:26:00.603Z,27.30
2023-02-05T04:28:32.311Z,27.00
2023-02-05T04:31:00.834Z,25.80
2023-02-05T04:33:29.279Z,26.30
2023-02-05T04:36:01.570Z,29.10
2023-02-05T04:38:30.154Z,27.40
2023-02-05T04:40:58.417Z,24.30
2023-02-05T04:43:27.067Z,17.30
2023-02-05T04:45:55.645Z,16.20
2023-02-05T04:48:24.002Z,19.40
2023-02-05T04:50:52.463Z,21.20
2023-02-05T04:53:21.624Z,20.40
2023-02-05T04:55:49.863Z,17.20
2023-02-05T04:58:21.909Z,16.90
2023-02-05T05:00:50.309Z,14.00
2023-02-05T05:03:18.546Z,14.50
2023-02-05T05:05:47.374Z,14.20
2023-02-05T05:08:16.047Z,15.20
2023-02-05T05:10:44.383Z,13.40
2023-02-05T05:13:12.790Z,13.70
2023-02-05T05:15:40.997Z,14.90
2023-02-05T05:18:09.465Z,14.80
2023-02-05T05:20:38.013Z,13.70
2023-02-05T05:23:06.171Z,12.00
2023-02-05T05:25:34.997Z,12.70
2023-02-05T05:28:03.329Z,11.80
2023-02-05T05:30:31.324Z,11.90
2023-02-05T05:32:59.310Z,10.80
2023-02-05T05:35:27.481Z,11.00
2023-02-05T05:37:57.752Z,12.60
2023-02-05T05:40:46.019Z,12.40
2023-02-05T05:43:36.204Z,13.40
2023-02-05T05:46:05.863Z,14.40
2023-02-05T05:48:34.272Z,15.00
2023-02-05T05:51:02.666Z,14.20
2023-02-05T05:53:32.946Z,15.20
2023-02-05T05:56:01.198Z,31.80
2023-02-05T05:58:32.602Z,27.30
2023-02-05T06:01:00.881Z,20.00
2023-02-05T06:03:29.801Z,21.30
2023-02-05T06:06:01.445Z,30.00
2023-02-05T06:08:30.570Z,29.50
2023-02-05T06:10:59.435Z,27.60
2023-02-05T06:13:28.015Z,26.00
2023-02-05T06:15:56.365Z,26.60
2023-02-05T06:18:24.654Z,27.00
2023-02-05T06:20:53.612Z,19.80
2023-02-05T06:23:21.804Z,19.00
2023-02-05T06:25:50.702Z,31.60
2023-02-05T06:28:19.679Z,39.50
2023-02-05T06:30:47.893Z,42.20
2023-02-05T06:33:16.299Z,42.40
2023-02-05T06:35:44.895Z,40.80
2023-02-05T06:38:13.212Z,37.40
2023-02-05T06:40:41.472Z,32.70
2023-02-05T06:43:11.161Z,28.10
2023-02-05T06:45:40.078Z,25.00
2023-02-05T06:48:11.340Z,28.10
2023-02-05T06:50:39.799Z,27.80
2023-02-05T06:53:08.250Z,23.80
2023-02-05T06:55:40.870Z,25.10
2023-02-05T06:58:09.559Z,68.50
2023-02-05T07:00:38.104Z,57.60
2023-02-05T07:03:06.398Z,62.30
2023-02-05T07:05:35.377Z,46.00
2023-02-05T07:08:04.470Z,27.40
2023-02-05T07:10:33.265Z,20.70
2023-02-05T07:13:02.176Z,18.60
2023-02-05T07:15:31.389Z,19.00
2023-02-05T07:18:00.219Z,22.70
2023-02-05T07:20:29.892Z,23.60
2023-02-05T07:22:58.447Z,25.90
2023-02-05T07:25:27.084Z,18.00
2023-02-05T07:27:55.670Z,18.30
2023-02-05T07:30:23.929Z,25.50
2023-02-05T07:32:52.623Z,18.70
2023-02-05T07:35:21.570Z,21.50
2023-02-05T07:37:49.865Z,22.60
2023-02-05T07:40:18.330Z,24.70
2023-02-05T07:42:48.161Z,28.00
2023-02-05T07:45:19.859Z,34.10
2023-02-05T07:47:51.398Z,46.30
2023-02-05T07:50:19.850Z,29.50
2023-02-05T07:52:48.133Z,39.80
2023-02-05T07:55:16.365Z,31.50
2023-02-05T07:57:45.421Z,36.50
2023-02-05T08:00:14.714Z,44.20
2023-02-05T08:02:43.521Z,41.10
2023-02-05T08:05:12.080Z,36.30
2023-02-05T08:07:40.391Z,30.50
2023-02-05T08:10:10.225Z,25.10
2023-02-05T08:12:40.676Z,28.30
2023-02-05T08:15:09.534Z,21.50
2023-02-05T08:17:41.131Z,21.40
2023-02-05T08:20:10.607Z,18.60
2023-02-05T08:22:40.996Z,18.50
2023-02-05T08:25:12.447Z,20.10
2023-02-05T08:27:46.314Z,20.00
2023-02-05T08:30:17.286Z,20.10
2023-02-05T08:32:50.361Z,20.70
2023-02-05T08:35:18.610Z,22.00
2023-02-05T08:37:46.979Z,21.90
2023-02-05T08:40:17.899Z,28.70
2023-02-05T08:42:47.325Z,23.80
2023-02-05T08:45:15.865Z,18.50
2023-02-05T08:47:47.103Z,20.10
2023-02-05T08:50:16.315Z,22.40
2023-02-05T08:52:46.072Z,22.70
2023-02-05T08:55:14.713Z,19.60
2023-02-05T08:57:46.031Z,19.20
2023-02-05T09:00:17.482Z,18.50
2023-02-05T09:02:46.248Z,18.10
2023-02-05T09:05:14.643Z,19.20
2023-02-05T09:07:44.304Z,21.20
2023-02-05T09:10:13.946Z,19.20
2023-02-05T09:12:42.891Z,21.20
2023-02-05T09:15:11.818Z,19.20
2023-02-05T09:17:41.067Z,26.00
2023-02-05T09:20:09.962Z,43.80
2023-02-05T09:22:38.875Z,52.20
2023-02-05T09:25:08.220Z,48.40
2023-02-05T09:27:36.435Z,44.20
2023-02-05T09:30:05.020Z,33.30
2023-02-05T09:32:33.721Z,26.20
2023-02-05T09:35:04.268Z,29.80
2023-02-05T09:37:35.547Z,23.60
2023-02-05T09:40:21.176Z,17.70
2023-02-05T09:43:05.836Z,19.70
2023-02-05T09:45:50.891Z,19.50
2023-02-05T09:48:41.143Z,16.50
2023-02-05T09:51:12.120Z,12.70
2023-02-05T09:53:46.516Z,13.60
2023-02-05T09:56:17.516Z,13.70
2023-02-05T09:58:50.282Z,14.80
2023-02-05T10:01:36.607Z,13.30
2023-02-05T10:04:07.937Z,12.70
2023-02-05T10:06:59.417Z,13.70
2023-02-05T10:09:46.692Z,19.40
2023-02-05T10:12:40.907Z,12.10
2023-02-05T10:15:19.115Z,10.50
2023-02-05T10:18:16.175Z,9.40
2023-02-05T10:21:06.531Z,13.10
2023-02-05T10:23:52.835Z,16.30
2023-02-05T10:26:26.893Z,11.90
2023-02-05T10:29:09.596Z,11.50
2023-02-05T10:31:59.069Z,9.60
2023-02-05T10:34:47.090Z,12.90
2023-02-05T10:37:21.924Z,16.00
2023-02-05T10:39:50.242Z,13.00
2023-02-05T10:42:21.211Z,9.00
2023-02-05T10:44:57.705Z,7.50
2023-02-05T10:47:40.399Z,8.10
2023-02-05T10:50:23.827Z,6.80
2023-02-05T10:52:52.460Z,9.90
2023-02-05T10:55:21.143Z,12.20
2023-02-05T10:57:49.743Z,8.20
2023-02-05T11:00:22.102Z,9.00
2023-02-05T11:02:55.441Z,11.00
2023-02-05T11:05:36.474Z,9.40
2023-02-05T11:08:05.958Z,9.90
2023-02-05T11:10:36.209Z,9.90
2023-02-05T11:13:22.457Z,10.70
2023-02-05T11:16:11.242Z,11.00
2023-02-05T11:18:55.449Z,9.50
2023-02-05T11:21:24.253Z,7.10
2023-02-05T11:23:58.166Z,7.50
2023-02-05T11:26:28.850Z,10.30
2023-02-05T11:28:57.942Z,11.00
2023-02-05T11:31:29.232Z,12.30
2023-02-05T11:34:15.902Z,13.80
2023-02-05T11:36:56.917Z,12.90
2023-02-05T11:39:40.746Z,13.30
2023-02-05T11:42:23.824Z,15.40
2023-02-05T11:45:00.748Z,12.90
2023-02-05T11:47:35.055Z,12.50
2023-02-05T11:50:06.234Z,12.00
2023-02-05T11:52:39.541Z,13.50
2023-02-05T11:55:25.781Z,13.10
2023-02-05T11:58:06.045Z,14.00
2023-02-05T12:00:37.864Z,14.20
2023-02-05T12:03:18.188Z,13.20
2023-02-05T12:06:11.602Z,12.80
2023-02-05T12:08:43.534Z,12.80
2023-02-05T12:11:24.088Z,14.20
2023-02-05T12:14:20.097Z,11.10
2023-02-05T12:17:03.708Z,12.00
2023-02-05T12:19:58.831Z,10.60
2023-02-05T12:22:46.075Z,10.80
2023-02-05T12:25:27.978Z,10.30
2023-02-05T12:28:20.704Z,8.10
2023-02-05T12:31:13.553Z,8.80
2023-02-05T12:34:03.668Z,8.20
2023-02-05T12:36:59.360Z,8.70
2023-02-05T12:39:52.311Z,7.90
2023-02-05T12:42:35.757Z,7.50
2023-02-05T12:45:23.055Z,5.40
2023-02-05T12:47:54.695Z,5.20
2023-02-05T12:50:53.408Z,5.50
2023-02-05T12:53:35.300Z,5.10
2023-02-05T12:56:30.679Z,4.40
2023-02-05T12:59:12.299Z,5.60
2023-02-05T13:01:48.527Z,5.60
2023-02-05T13:04:32.009Z,5.90
2023-02-05T13:07:24.573Z,6.70
2023-02-05T13:10:06.755Z,8.30
2023-02-05T13:12:39.972Z,13.80
2023-02-05T13:15:27.751Z,8.50
2023-02-05T13:18:14.953Z,11.40
2023-02-05T13:21:05.316Z,13.80
2023-02-05T13:23:54.817Z,12.00
2023-02-05T13:26:51.356Z,13.70
2023-02-05T13:29:23.866Z,14.00
2023-02-05T13:32:21.969Z,11.60
2023-02-05T13:34:54.998Z,12.80
2023-02-05T13:37:23.361Z,12.50
2023-02-05T13:40:03.536Z,15.60
2023-02-05T13:42:53.837Z,19.90
2023-02-05T13:45:59.553Z,15.00
2023-02-05T13:48:56.840Z,14.70
2023-02-05T13:51:43.427Z,14.70
2023-02-05T13:54:24.455Z,13.70
2023-02-05T13:56:58.537Z,13.10
2023-02-05T13:59:40.453Z,12.10
2023-02-05T14:02:41.478Z,14.40
2023-02-05T14:05:11.389Z,17.30
2023-02-05T14:07:46.061Z,17.70
2023-02-05T14:10:30.350Z,16.60
2023-02-05T14:13:27.901Z,15.20
2023-02-05T14:15:58.247Z,16.50
2023-02-05T14:18:44.905Z,21.90
2023-02-05T14:21:31.795Z,16.30
2023-02-05T14:24:21.502Z,15.80
2023-02-05T14:26:59.855Z,14.70
2023-02-05T14:29:46.650Z,13.90
2023-02-05T14:32:40.902Z,13.80
2023-02-05T14:35:28.098Z,17.10
2023-02-05T14:38:02.866Z,19.80
2023-02-05T14:40:37.732Z,22.40
2023-02-05T14:43:21.861Z,18.70
2023-02-05T14:45:52.258Z,21.70
2023-02-05T14:48:28.048Z,24.10
2023-02-05T14:51:09.883Z,24.00
2023-02-05T14:53:40.018Z,22.80
2023-02-05T14:56:09.065Z,22.10
2023-02-05T14:58:41.426Z,38.20
2023-02-05T15:01:31.405Z,33.60
2023-02-05T15:04:02.557Z,28.90
2023-02-05T15:06:39.756Z,30.10
2023-02-05T15:09:26.544Z,27.90
2023-02-05T15:12:21.515Z,27.00
2023-02-05T15:14:58.315Z,33.00
2023-02-05T15:17:30.214Z,28.40
2023-02-05T15:20:04.969Z,23.10
2023-02-05T15:22:37.488Z,23.80
2023-02-05T15:25:19.136Z,24.80
2023-02-05T15:27:54.680Z,26.20
2023-02-05T15:30:30.116Z,26.90
2023-02-05T15:33:10.496Z,27.10
2023-02-05T15:35:44.976Z,26.60
2023-02-05T15:38:46.892Z,29.80
2023-02-05T15:41:16.960Z,28.20
2023-02-05T15:43:59.242Z,27.60
2023-02-05T15:46:28.481Z,26.60
2023-02-05T15:48:57.307Z,29.90
2023-02-05T15:51:34.768Z,24.70
2023-02-05T15:54:06.168Z,25.90
2023-02-05T15:56:44.722Z,22.40
2023-02-05T15:59:20.783Z,26.60
2023-02-05T16:02:05.644Z,23.90
2023-02-05T16:04:37.750Z,27.10
2023-02-05T16:07:29.810Z,27.60
2023-02-05T16:10:00.599Z,27.00
2023-02-05T16:12:30.732Z,33.30
2023-02-05T16:15:05.109Z,34.70
2023-02-05T16:17:52.149Z,34.70
2023-02-05T16:20:22.986Z,29.30
2023-02-05T16:22:57.577Z,28.20
2023-02-05T16:25:32.245Z,29.40
2023-02-05T16:28:08.151Z,28.90
2023-02-05T16:30:43.262Z,23.10
2023-02-05T16:33:33.754Z,28.10
2023-02-05T16:36:05.689Z,24.90
2023-02-05T16:38:36.136Z,31.30
2023-02-05T16:41:25.519Z,23.20
2023-02-05T16:43:56.598Z,31.10
2023-02-05T16:46:32.722Z,31.10
2023-02-05T16:49:24.843Z,38.00
2023-02-05T16:51:55.619Z,41.10
2023-02-05T16:54:30.563Z,41.00
2023-02-05T16:57:04.903Z,40.60
2023-02-05T16:59:56.253Z,35.00
2023-02-05T17:02:43.151Z,34.90
2023-02-05T17:05:38.568Z,41.30
2023-02-05T17:08:09.825Z,44.20
2023-02-05T17:10:54.301Z,44.30
2023-02-05T17:13:49.427Z,70.00
2023-02-05T17:16:30.432Z,41.20
2023-02-05T17:19:00.640Z,37.50
2023-02-05T17:21:33.865Z,40.10
2023-02-05T17:24:06.306Z,48.20
2023-02-05T17:26:39.650Z,49.40
2023-02-05T17:29:15.309Z,55.80
2023-02-05T17:31:45.399Z,43.40
2023-02-05T17:34:13.967Z,40.50
2023-02-05T17:36:44.358Z,33.00
2023-02-05T17:39:12.608Z,29.90
2023-02-05T17:42:02.412Z,32.40
2023-02-05T17:44:31.552Z,31.50
2023-02-05T17:47:01.673Z,28.10
2023-02-05T17:49:32.595Z,28.00
2023-02-05T17:52:02.686Z,30.70
2023-02-05T17:54:31.440Z,38.00
2023-02-05T17:57:13.013Z,46.00
2023-02-05T17:59:43.354Z,42.00
2023-02-05T18:02:13.960Z,45.70
2023-02-05T18:04:45.025Z,69.70
2023-02-05T18:07:31.094Z,89.90
2023-02-05T18:10:04.199Z,106.40
2023-02-05T18:12:33.656Z,115.80
2023-02-05T18:15:02.064Z,104.20
2023-02-05T18:17:30.536Z,83.80
2023-02-05T18:19:59.082Z,84.70
2023-02-05T18:22:27.452Z,77.50
2023-02-05T18:24:56.036Z,66.20
2023-02-05T18:27:24.450Z,59.20
2023-02-05T18:29:53.095Z,63.80
2023-02-05T18:32:22.344Z,66.10
2023-02-05T18:34:51.315Z,75.10
2023-02-05T18:37:20.218Z,68.60
2023-02-05T18:39:49.083Z,63.60
2023-02-05T18:42:17.893Z,59.10
2023-02-05T18:44:46.591Z,53.60
2023-02-05T18:47:15.068Z,50.50
2023-02-05T18:49:43.956Z,49.20
2023-02-05T18:52:14.186Z,48.60
2023-02-05T18:54:46.454Z,43.30
2023-02-05T18:57:14.986Z,39.30
2023-02-05T18:59:44.931Z,38.40
2023-02-05T19:02:13.270Z,40.80
2023-02-05T19:04:42.390Z,41.40
2023-02-05T19:07:18.380Z,40.00
2023-02-05T19:09:47.182Z,42.10
2023-02-05T19:12:16.420Z,44.70
2023-02-05T19:14:45.820Z,69.80
2023-02-05T19:17:14.186Z,90.30
2023-02-05T19:19:42.859Z,69.20
2023-02-05T19:22:11.520Z,56.90
2023-02-05T19:24:40.754Z,49.00
2023-02-05T19:27:09.525Z,44.30
2023-02-05T19:29:40.829Z,46.40
2023-02-05T19:32:10.453Z,39.60
2023-02-05T19:34:41.140Z,38.90
2023-02-05T19:37:11.865Z,39.10
2023-02-05T19:39:41.049Z,41.00
2023-02-05T19:42:09.449Z,41.70
2023-02-05T19:44:37.745Z,41.60
2023-02-05T19:47:06.364Z,40.10
2023-02-05T19:49:34.748Z,39.30
2023-02-05T19:52:03.703Z,40.30
2023-02-05T19:54:32.371Z,45.10
2023-02-05T19:57:01.381Z,50.30
2023-02-05T19:59:30.196Z,61.80
2023-02-05T20:01:59.008Z,100.00
2023-02-05T20:04:31.266Z,90.60
2023-02-05T20:07:02.190Z,45.30
2023-02-05T20:09:33.635Z,39.70
2023-02-05T20:12:03.720Z,40.10
2023-02-05T20:14:33.811Z,56.20
2023-02-05T20:17:02.565Z,61.70
2023-02-05T20:19:32.193Z,69.40
2023-02-05T20:22:05.994Z,63.30
2023-02-05T20:24:34.365Z,63.50
2023-02-05T20:27:02.569Z,57.40
2023-02-05T20:29:49.206Z,60.40
2023-02-05T20:32:17.404Z,64.90
2023-02-05T20:34:50.448Z,59.00
2023-02-05T20:37:20.214Z,56.90
2023-02-05T20:39:48.788Z,48.90
2023-02-05T20:42:17.586Z,56.50
2023-02-05T20:44:46.991Z,62.30
2023-02-05T20:47:15.568Z,107.90
2023-02-05T20:49:43.733Z,118.70
2023-02-05T20:52:12.512Z,132.40
2023-02-05T20:54:42.117Z,122.30
2023-02-05T20:57:11.145Z,131.00
2023-02-05T20:59:40.016Z,141.50
2023-02-05T21:02:11.399Z,125.60
2023-02-05T21:04:39.928Z,102.80
2023-02-05T21:07:08.405Z,82.80
2023-02-05T21:09:36.839Z,85.30
2023-02-05T21:12:05.652Z,113.70
2023-02-05T21:14:34.302Z,119.20
2023-02-05T21:17:03.148Z,97.40
2023-02-05T21:19:31.871Z,97.90
2023-02-05T21:22:00.807Z,99.10
2023-02-05T21:24:29.550Z,99.30
2023-02-05T21:26:58.236Z,93.70
2023-02-05T21:29:26.889Z,94.80
2023-02-05T21:31:57.924Z,83.40
2023-02-05T21:34:28.625Z,88.80
2023-02-05T21:37:01.023Z,87.00
2023-02-05T21:39:29.456Z,87.90
2023-02-05T21:41:57.686Z,82.20
2023-02-05T21:44:26.093Z,76.30
2023-02-05T21:46:55.630Z,75.80
2023-02-05T21:49:24.113Z,72.10
2023-02-05T21:51:53.598Z,71.00
2023-02-05T21:54:25.585Z,74.00
2023-02-05T21:56:54.849Z,74.90
2023-02-05T21:59:23.592Z,77.90
2023-02-05T22:01:52.046Z,72.30
2023-02-05T22:04:21.260Z,71.50
2023-02-05T22:06:50.736Z,107.60
2023-02-05T22:09:19.475Z,160.30
2023-02-05T22:11:50.580Z,194.00
2023-02-05T22:14:19.581Z,419.60
2023-02-05T22:16:48.615Z,112.70
2023-02-05T22:19:17.507Z,117.80
2023-02-05T22:21:46.237Z,145.50
2023-02-05T22:24:17.104Z,148.10
2023-02-05T22:26:46.896Z,125.80
2023-02-05T22:29:20.200Z,90.00
2023-02-05T22:31:53.219Z,73.70
2023-02-05T22:34:22.143Z,69.80
2023-02-05T22:36:53.246Z,74.30
2023-02-05T22:39:22.454Z,64.90
2023-02-05T22:41:50.862Z,66.70
2023-02-05T22:44:19.038Z,71.90
2023-02-05T22:46:48.615Z,83.70
2023-02-05T22:49:18.633Z,116.40
2023-02-05T22:51:47.026Z,115.40
2023-02-05T22:54:15.473Z,117.50
2023-02-05T22:56:44.738Z,84.80
2023-02-05T22:59:13.606Z,79.40
2023-02-05T23:01:42.545Z,98.90
2023-02-05T23:04:10.973Z,92.30
2023-02-05T23:06:42.864Z,96.20
2023-02-05T23:09:23.301Z,87.20
2023-02-05T23:11:51.731Z,78.50
2023-02-05T23:14:20.695Z,76.90
2023-02-05T23:16:49.994Z,66.80
2023-02-05T23:19:20.942Z,64.30
2023-02-05T23:21:49.731Z,62.60
2023-02-05T23:24:18.953Z,56.50
2023-02-05T23:26:50.967Z,57.80
2023-02-05T23:29:20.697Z,53.70
2023-02-05T23:31:49.033Z,52.20
2023-02-05T23:34:17.623Z,51.10
2023-02-05T23:36:46.288Z,52.20
2023-02-05T23:39:15.285Z,47.10
2023-02-05T23:41:43.596Z,49.50
2023-02-05T23:44:20.928Z,53.20
2023-02-05T23:46:50.619Z,52.40
2023-02-05T23:49:23.938Z,54.10
2023-02-05T23:51:55.654Z,51.50
2023-02-05T23:54:24.346Z,50.60
2023-02-05T23:56:53.368Z,57.90
2023-02-05T23:59:22.423Z,57.40
